Time;durP1;ratioP1;P1;durP2;ratioP2;P2;SDS_P1;SDS_P2;PMS_P1;PMS_P2;Temp;Humidity;BMP_temperature;BMP_pressure;BME280_temperature;BME280_humidity;BME280_pressure;Samples;Min_cycle;Max_cycle;Signal;HPM_P1;HPM_P2
2020/12/06 00:02:23;;;;;;;96.30;37.00;;;0.80;1.40;;;1.60;100.00;93493.59;629551;225;31927;-72
2020/12/06 00:04:52;;;;;;;206.33;54.97;;;0.80;1.40;;;1.77;100.00;93503.70;627542;225;24593;-70
2020/12/06 00:07:22;;;;;;;89.30;39.23;;;0.90;1.40;;;1.84;100.00;93510.55;626352;225;25761;-72
2020/12/06 00:09:51;;;;;;;144.03;43.10;;;0.90;1.40;;;1.89;100.00;93522.60;629081;225;24592;-71
2020/12/06 00:12:20;;;;;;;298.75;82.78;;;0.90;1.40;;;1.49;100.00;93541.16;622818;224;34729;-72
2020/12/06 00:14:49;;;;;;;112.10;43.23;;;0.80;1.40;;;1.69;100.00;93525.87;627173;225;23509;-72
2020/12/06 00:19:53;;;;;;;265.98;77.28;;;0.90;1.40;;;1.75;100.00;93533.33;645942;216;32025;-72
2020/12/06 00:22:22;;;;;;;295.13;63.60;;;0.90;1.40;;;1.60;100.00;93535.31;640156;221;23554;-72
2020/12/06 00:24:51;;;;;;;138.03;43.40;;;0.80;1.40;;;1.91;100.00;93551.05;639230;221;24541;-72
2020/12/06 00:27:20;;;;;;;88.07;39.37;;;0.90;1.40;;;2.00;100.00;93548.63;642432;221;24511;-72
2020/12/06 00:29:49;;;;;;;88.30;41.17;;;1.00;1.40;;;2.07;100.00;93544.40;642242;220;26948;-72
2020/12/06 00:32:18;;;;;;;75.50;40.13;;;0.90;1.40;;;1.96;100.00;93532.95;641175;220;24509;-72
2020/12/06 00:34:47;;;;;;;113.67;41.73;;;1.00;1.40;;;1.97;100.00;93536.19;641633;221;24536;-72
2020/12/06 00:39:51;;;;;;;183.82;58.87;;;0.90;1.40;;;1.66;100.00;93533.41;646197;212;31598;-73
2020/12/06 00:42:20;;;;;;;110.43;43.43;;;0.90;1.40;;;1.66;100.00;93517.89;654866;215;23499;-72
2020/12/06 00:44:49;;;;;;;106.30;40.23;;;0.80;1.40;;;1.63;100.00;93516.17;654898;215;24603;-72
2020/12/06 00:47:18;;;;;;;99.20;36.90;;;0.80;1.40;;;1.58;100.00;93518.90;670183;211;29897;-72
2020/12/06 00:49:47;;;;;;;93.30;36.67;;;0.80;1.40;;;1.58;100.00;93510.02;641252;221;24534;-72
2020/12/06 00:52:17;;;;;;;98.07;37.73;;;0.80;1.40;;;1.70;100.00;93519.49;670274;211;24454;-72
2020/12/06 00:54:46;;;;;;;158.35;53.40;;;0.80;1.40;;;1.78;100.00;93513.35;663912;211;32017;-73
2020/12/06 00:57:15;;;;;;;240.70;71.45;;;0.90;1.40;;;1.82;100.00;93514.17;660462;211;31408;-73
2020/12/06 00:59:44;;;;;;;208.67;69.80;;;0.90;1.40;;;1.89;100.00;93507.97;665600;211;31481;-72
2020/12/06 01:02:15;;;;;;;113.30;45.67;;;0.90;1.40;;;1.85;100.00;93495.74;670565;211;24400;-73
2020/12/06 01:04:42;;;;;;;135.20;45.23;;;0.90;1.40;;;1.91;100.00;93482.59;654463;216;24481;-72
2020/12/06 01:07:12;;;;;;;106.37;41.20;;;0.90;1.40;;;1.85;100.00;93488.96;654008;216;24458;-73
2020/12/06 01:09:41;;;;;;;108.27;40.77;;;0.90;1.40;;;1.78;100.00;93501.22;642238;220;24518;-72
2020/12/06 01:12:10;;;;;;;135.07;43.03;;;0.80;1.40;;;1.72;100.00;93526.72;640971;220;29855;-72
2020/12/06 01:14:41;;;;;;;130.53;41.77;;;0.80;1.40;;;1.87;100.00;93517.80;650258;219;24483;-72
2020/12/06 01:17:11;;;;;;;196.87;55.37;;;0.90;1.40;;;1.72;100.00;93533.18;668871;211;24545;-72
2020/12/06 01:19:40;;;;;;;111.57;42.27;;;0.80;1.40;;;1.63;100.00;93537.32;669010;211;24435;-72
2020/12/06 01:22:09;;;;;;;106.47;39.70;;;0.80;1.40;;;1.64;100.00;93511.57;671653;211;24421;-71
2020/12/06 01:24:38;;;;;;;110.13;40.80;;;0.80;1.40;;;1.56;100.00;93507.02;667595;211;24428;-73
2020/12/06 01:27:07;;;;;;;123.87;42.30;;;0.80;1.40;;;1.45;100.00;93525.50;656022;216;24468;-71
2020/12/06 01:29:36;;;;;;;110.83;36.37;;;0.80;1.40;;;1.43;100.00;93531.36;652619;215;24985;-71
2020/12/06 01:32:06;;;;;;;134.53;42.73;;;0.70;1.40;;;1.43;100.00;93506.97;640128;221;29916;-71
2020/12/06 01:34:35;;;;;;;124.50;41.80;;;0.70;1.40;;;1.47;100.00;93520.47;671679;211;24435;-72
2020/12/06 01:37:04;;;;;;;123.07;42.10;;;0.70;1.40;;;1.68;100.00;93495.48;667290;211;24427;-71
2020/12/06 01:42:08;;;;;;;164.93;57.08;;;0.80;1.40;;;1.66;100.00;93486.16;621365;222;32562;-73
2020/12/06 01:44:37;;;;;;;105.07;47.00;;;0.80;1.40;;;1.60;100.00;93484.73;616444;229;23596;-73
2020/12/06 01:47:06;;;;;;;119.50;42.90;;;0.80;1.40;;;1.64;100.00;93477.37;617175;230;24624;-72
2020/12/06 01:49:36;;;;;;;158.37;45.77;;;0.80;1.40;;;1.54;100.00;93466.06;615828;230;24626;-72
2020/12/06 01:52:05;;;;;;;133.87;41.37;;;0.70;1.40;;;1.36;100.00;93471.86;617010;230;24590;-73
2020/12/06 01:54:35;;;;;;;131.63;42.77;;;0.70;1.40;;;1.44;100.00;93447.74;618236;230;24594;-73
2020/12/06 01:57:05;;;;;;;78.53;37.50;;;0.70;1.40;;;1.62;100.00;93433.89;616519;230;24749;-73
2020/12/06 01:59:34;;;;;;;339.08;84.43;;;0.80;1.40;;;1.64;100.00;93436.91;609380;229;33176;-71
2020/12/06 02:02:03;;;;;;;208.97;55.97;;;0.80;1.40;;;1.88;100.00;93428.39;613708;230;23551;-72
2020/12/06 02:04:33;;;;;;;91.97;39.33;;;0.80;1.40;;;1.97;100.00;93428.55;615533;230;24593;-72
2020/12/06 02:07:02;;;;;;;88.00;38.23;;;0.90;1.40;;;1.97;100.00;93422.05;616465;230;25713;-72
2020/12/06 02:09:31;;;;;;;174.30;45.33;;;0.80;1.40;;;1.89;100.00;93436.27;629186;225;24570;-72
2020/12/06 02:12:00;;;;;;;113.57;41.40;;;0.80;1.40;;;1.88;100.00;93439.08;621415;230;24515;-72
2020/12/06 02:14:30;;;;;;;167.45;61.65;;;0.80;1.40;;;1.99;100.00;93448.08;615963;229;32472;-73
2020/12/06 02:17:00;;;;;;;142.77;44.20;;;0.80;1.40;;;2.02;100.00;93444.12;620882;230;28885;-73
2020/12/06 02:19:29;;;;;;;253.87;56.37;;;0.90;1.40;;;1.85;100.00;93431.27;619105;230;24621;-71
2020/12/06 02:21:58;;;;;;;137.07;45.63;;;0.80;1.40;;;1.83;100.00;93423.05;619451;230;24642;-72
2020/12/06 02:24:28;;;;;;;217.37;50.37;;;0.80;1.40;;;1.80;100.00;93422.91;617589;230;24620;-71
2020/12/06 02:26:57;;;;;;;452.02;105.90;;;0.80;1.40;;;1.86;100.00;93423.45;621502;226;31965;-71
2020/12/06 02:29:26;;;;;;;523.05;124.75;;;0.80;1.40;;;1.93;100.00;93430.08;609495;230;33557;-71
2020/12/06 02:31:55;;;;;;;378.60;72.87;;;0.80;1.40;;;2.07;100.00;93414.20;617460;230;23638;-73
2020/12/06 02:34:25;;;;;;;130.17;45.47;;;0.90;1.40;;;2.08;100.00;93396.17;626209;226;24789;-72
2020/12/06 02:36:54;;;;;;;267.73;59.67;;;0.80;1.40;;;1.91;100.00;93401.76;622969;228;24634;-72
2020/12/06 02:39:23;;;;;;;147.13;46.70;;;0.80;1.40;;;1.92;100.00;93411.84;615192;230;24582;-72
2020/12/06 02:41:52;;;;;;;146.27;45.17;;;0.80;1.40;;;2.10;100.00;93414.51;615675;230;24618;-71
2020/12/06 02:44:21;;;;;;;250.87;71.87;;;0.90;1.40;;;2.12;100.00;93396.19;623506;225;31907;-71
2020/12/06 02:46:50;;;;;;;142.87;47.60;;;0.90;1.40;;;1.81;100.00;93396.98;617914;230;23684;-71
2020/12/06 02:49:19;;;;;;;221.30;49.77;;;0.80;1.40;;;1.72;100.00;93384.95;614139;230;24658;-71
2020/12/06 02:54:23;;;;;;;325.55;81.90;;;0.70;1.40;;;1.71;100.00;93385.61;646588;216;31638;-70
2020/12/06 02:56:52;;;;;;;426.80;80.10;;;0.70;1.40;;;1.66;100.00;93384.30;640732;221;23470;-71
2020/12/06 02:59:21;;;;;;;190.37;56.20;;;0.70;1.40;;;1.90;100.00;93381.10;638751;221;24509;-71
2020/12/06 03:01:50;;;;;;;204.27;50.47;;;0.80;1.40;;;1.96;100.00;93378.51;638536;220;24533;-72
2020/12/06 03:04:19;;;;;;;321.47;63.77;;;0.80;1.40;;;2.02;100.00;93358.48;641502;220;24520;-72
2020/12/06 03:06:48;;;;;;;468.40;101.07;;;0.80;1.40;;;1.99;100.00;93348.73;639725;221;31818;-72
2020/12/06 03:09:17;;;;;;;310.80;68.20;;;0.70;1.40;;;1.72;100.00;93355.25;641871;221;23499;-72
2020/12/06 03:11:46;;;;;;;243.20;58.43;;;0.70;1.40;;;1.63;100.00;93356.97;640401;220;24508;-72
2020/12/06 03:14:16;;;;;;;299.40;62.47;;;0.60;1.40;;;1.65;100.00;93357.08;639871;221;24629;-72
2020/12/06 03:16:45;;;;;;;340.20;64.90;;;0.60;1.40;;;1.63;100.00;93351.48;641374;221;24645;-72
2020/12/06 03:19:14;;;;;;;228.30;50.23;;;0.60;1.40;;;1.79;100.00;93353.38;640711;221;24646;-72
2020/12/06 03:21:43;;;;;;;211.53;53.50;;;0.70;1.40;;;1.65;100.00;93358.89;642233;221;25122;-72
2020/12/06 03:24:12;;;;;;;140.97;41.93;;;0.60;1.40;;;1.63;100.00;93370.44;641599;221;24835;-72
2020/12/06 03:26:41;;;;;;;148.27;46.97;;;0.70;1.40;;;1.58;100.00;93379.09;640613;221;24547;-73
2020/12/06 03:29:10;;;;;;;189.47;54.63;;;0.70;1.40;;;1.65;100.00;93386.61;643464;221;24500;-72
2020/12/06 03:31:39;;;;;;;130.80;42.57;;;0.70;1.40;;;1.65;100.00;93377.80;644116;220;24542;-71
2020/12/06 03:34:08;;;;;;;128.37;41.30;;;0.80;1.40;;;1.70;100.00;93376.67;643194;221;25608;-71
2020/12/06 03:36:37;;;;;;;97.73;40.80;;;0.70;1.40;;;1.66;100.00;93353.50;642120;221;24560;-71
2020/12/06 03:39:06;;;;;;;76.53;38.13;;;0.80;1.40;;;1.64;100.00;93357.97;636910;221;24545;-71
2020/12/06 03:41:36;;;;;;;105.53;40.17;;;0.70;1.40;;;1.59;100.00;93373.03;641158;221;24968;-71
2020/12/06 03:44:05;;;;;;;78.77;33.67;;;0.80;1.40;;;1.41;100.00;93381.55;632057;221;24552;-71
2020/12/06 03:49:08;;;;;;;132.90;50.33;;;0.70;1.40;;;1.45;100.00;93368.92;647276;216;31589;-72
2020/12/06 03:51:37;;;;;;;102.33;41.10;;;0.60;1.40;;;1.29;100.00;93369.80;642967;220;23492;-72
2020/12/06 03:54:06;;;;;;;120.37;40.40;;;0.50;1.40;;;1.28;100.00;93383.97;641671;221;24524;-72
2020/12/06 03:56:36;;;;;;;97.60;38.37;;;0.50;1.40;;;1.30;100.00;93378.56;639675;220;24508;-71
2020/12/06 03:59:05;;;;;;;186.95;55.40;;;0.50;1.40;;;1.29;100.00;93380.64;635095;221;31776;-71
2020/12/06 04:01:34;;;;;;;196.27;58.35;;;0.40;1.40;;;1.27;100.00;93357.58;634523;221;31746;-72
2020/12/06 04:04:03;;;;;;;163.83;44.33;;;0.40;1.40;;;1.20;100.00;93340.84;641151;221;23533;-72
2020/12/06 04:06:32;;;;;;;80.37;34.77;;;0.40;1.40;;;1.19;100.00;93347.33;640779;220;24517;-71
2020/12/06 04:09:01;;;;;;;96.83;38.73;;;0.40;1.40;;;1.28;100.00;93350.72;641309;220;24520;-72
2020/12/06 04:11:30;;;;;;;112.57;40.10;;;0.30;1.40;;;1.25;100.00;93379.12;642630;221;25563;-71
2020/12/06 04:13:59;;;;;;;140.20;51.63;;;0.40;1.40;;;1.10;100.00;93372.08;636395;221;31865;-72
2020/12/06 04:16:28;;;;;;;143.00;54.53;;;0.30;1.40;;;1.08;100.00;93364.55;634557;221;31798;-71
2020/12/06 04:18:57;;;;;;;90.60;39.47;;;0.30;1.40;;;0.98;100.00;93369.48;642596;221;23506;-71
2020/12/06 04:21:26;;;;;;;98.50;38.47;;;0.30;1.40;;;0.99;100.00;93372.98;640359;220;24606;-71
2020/12/06 04:23:56;;;;;;;91.93;36.83;;;0.20;1.40;;;0.91;100.00;93362.22;640375;220;29882;-71
2020/12/06 04:26:26;;;;;;;71.10;33.10;;;0.20;1.40;;;0.87;100.00;93368.92;636380;221;24529;-71
2020/12/06 04:28:56;;;;;;;92.33;37.17;;;0.20;1.40;;;0.89;100.00;93387.02;640878;221;24567;-72
2020/12/06 04:31:24;;;;;;;76.83;32.60;;;0.20;1.40;;;0.97;100.00;93376.08;639762;221;25550;-72
2020/12/06 04:33:53;;;;;;;77.37;32.97;;;0.30;1.40;;;0.83;100.00;93364.37;641645;221;24489;-72
2020/12/06 04:36:22;;;;;;;72.03;33.87;;;0.20;1.40;;;0.95;100.00;93358.35;637991;220;25638;-71
2020/12/06 04:38:51;;;;;;;81.17;35.13;;;0.30;1.40;;;0.94;100.00;93373.14;640560;221;24500;-72
2020/12/06 04:41:23;;;;;;;76.43;35.60;;;0.30;1.40;;;1.05;100.00;93392.77;639465;220;24933;-72
2020/12/06 04:43:53;;;;;;;66.30;35.27;;;0.30;1.40;;;1.12;100.00;93365.72;632727;221;25101;-72
2020/12/06 04:46:22;;;;;;;73.00;36.87;;;0.30;1.40;;;1.13;100.00;93357.11;641329;220;24523;-72
2020/12/06 04:49:11;;;;;;;68.13;34.40;;;0.30;1.40;;;1.14;100.00;93365.85;654317;216;24802;-72
2020/12/06 04:51:42;;;;;;;75.90;36.47;;;0.30;1.40;;;1.07;100.00;93388.69;653207;216;24468;-72
2020/12/06 04:54:11;;;;;;;72.33;35.23;;;0.30;1.40;;;1.01;100.00;93392.74;642098;221;24509;-73
2020/12/06 04:56:40;;;;;;;74.53;33.57;;;0.20;1.40;;;0.93;100.00;93424.48;654442;216;28789;-72
2020/12/06 04:59:09;;;;;;;60.03;31.33;;;0.20;1.40;;;0.90;100.00;93431.59;642410;218;24646;-72
2020/12/06 05:01:38;;;;;;;72.53;34.70;;;0.30;1.40;;;1.01;100.00;93426.52;660883;215;24514;-73
2020/12/06 05:04:15;;;;;;;70.10;36.43;;;0.30;1.40;;;1.05;100.00;93430.72;657998;215;24480;-70
2020/12/06 05:06:44;;;;;;;62.80;34.27;;;0.30;1.40;;;1.02;100.00;93445.87;657627;215;24489;-71
2020/12/06 05:09:14;;;;;;;95.20;49.88;;;0.30;1.40;;;1.02;100.00;93443.47;639763;221;31785;-72
2020/12/06 05:11:43;;;;;;;72.67;37.13;;;0.30;1.40;;;1.01;100.00;93449.52;656522;215;24488;-72
2020/12/06 05:14:12;;;;;;;65.33;38.03;;;0.30;1.40;;;1.01;100.00;93468.66;655842;215;24464;-72
2020/12/06 05:16:41;;;;;;;66.47;35.50;;;0.40;1.40;;;1.08;100.00;93466.63;658310;215;24568;-71
2020/12/06 05:19:10;;;;;;;78.07;37.73;;;0.40;1.40;;;1.06;100.00;93460.78;654802;215;24496;-71
2020/12/06 05:21:40;;;;;;;74.97;34.57;;;0.40;1.40;;;1.07;100.00;93453.56;653451;215;24949;-72
2020/12/06 05:24:09;;;;;;;71.30;35.97;;;0.40;1.40;;;1.11;100.00;93452.95;652979;215;25484;-72
2020/12/06 05:26:38;;;;;;;73.10;36.80;;;0.40;1.40;;;1.20;100.00;93461.56;643643;220;24570;-71
2020/12/06 05:29:08;;;;;;;72.70;37.80;;;0.40;1.40;;;1.31;100.00;93487.87;640919;221;24546;-72
2020/12/06 05:31:37;;;;;;;127.97;57.55;;;0.50;1.40;;;1.28;100.00;93504.76;636013;220;31841;-72
2020/12/06 05:34:06;;;;;;;87.67;43.80;;;0.50;1.40;;;1.24;100.00;93484.94;659823;215;23432;-72
2020/12/06 05:36:35;;;;;;;78.53;41.83;;;0.50;1.40;;;1.23;100.00;93474.96;655104;216;24495;-72
2020/12/06 05:39:04;;;;;;;82.17;40.47;;;0.50;1.40;;;1.05;100.00;93478.56;653907;216;25076;-70
2020/12/06 05:41:33;;;;;;;106.53;53.30;;;0.50;1.40;;;0.99;100.00;93468.92;636477;220;31796;-70
2020/12/06 05:44:02;;;;;;;109.95;56.17;;;0.50;1.40;;;1.05;100.00;93440.78;649132;215;31663;-72
2020/12/06 05:46:31;;;;;;;78.03;42.17;;;0.40;1.40;;;1.01;100.00;93426.95;656867;216;23480;-71
2020/12/06 05:49:00;;;;;;;96.60;48.38;;;0.40;1.40;;;0.93;100.00;93435.88;638677;221;31754;-71
2020/12/06 05:51:30;;;;;;;90.38;49.78;;;0.40;1.40;;;0.92;100.00;93433.11;648032;216;33677;-72
2020/12/06 05:53:59;;;;;;;70.80;37.60;;;0.40;1.40;;;0.97;100.00;93423.45;656091;215;23453;-72
2020/12/06 05:59:03;;;;;;;87.65;48.05;;;0.50;1.40;;;1.14;100.00;93415.46;647141;212;32075;-72
2020/12/06 06:04:05;;;;;;;88.25;49.45;;;0.50;1.40;;;1.33;100.00;93420.03;646874;212;31618;-72
2020/12/06 06:06:36;;;;;;;78.97;40.53;;;0.50;1.40;;;1.41;100.00;93418.38;642036;221;32452;-72
2020/12/06 06:09:05;;;;;;;62.67;34.30;;;0.60;1.40;;;1.44;100.00;93403.00;642972;220;27629;-71
2020/12/06 06:14:09;;;;;;;82.53;44.35;;;0.60;1.40;;;1.25;100.00;93391.83;646750;216;31991;-71
2020/12/06 06:16:38;;;;;;;59.20;33.73;;;0.60;1.40;;;1.09;100.00;93408.22;641787;221;23474;-71
2020/12/06 06:19:07;;;;;;;56.83;30.67;;;0.50;1.40;;;1.00;100.00;93433.16;640099;221;24512;-72
2020/12/06 06:21:36;;;;;;;68.77;30.77;;;0.50;1.40;;;0.96;100.00;93440.97;655395;216;24510;-70
2020/12/06 06:24:09;;;;;;;63.17;36.03;;;0.50;1.40;;;0.99;100.00;93453.97;666764;211;24425;-72
2020/12/06 06:26:38;;;;;;;60.70;31.47;;;0.50;1.40;;;0.91;100.00;93463.42;669944;211;24451;-71
2020/12/06 06:29:12;;;;;;;73.87;32.27;;;0.50;1.40;;;0.95;100.00;93471.71;670208;211;24413;-72
2020/12/06 06:34:16;;;;;;;84.45;41.05;;;0.60;1.40;;;0.94;100.00;93477.97;646302;212;31582;-71
2020/12/06 06:36:45;;;;;;;63.17;35.40;;;0.60;1.40;;;0.98;100.00;93465.30;639885;221;23505;-71
2020/12/06 06:39:19;;;;;;;66.00;31.87;;;0.60;1.40;;;1.00;100.00;93459.56;643435;221;26610;-71
2020/12/06 06:42:01;;;;;;;64.70;28.67;;;0.60;1.40;;;0.94;100.00;93461.64;642146;220;24524;-71
2020/12/06 06:44:30;;;;;;;84.87;41.10;;;0.60;1.40;;;0.98;100.00;93469.84;633983;221;31828;-71
2020/12/06 06:47:01;;;;;;;70.03;34.30;;;0.60;1.40;;;1.05;100.00;93469.77;639955;221;24495;-70
2020/12/06 06:49:30;;;;;;;67.33;29.70;;;0.60;1.40;;;1.07;100.00;93491.23;642026;220;25065;-70
2020/12/06 06:51:59;;;;;;;87.62;43.20;;;0.60;1.40;;;1.01;100.00;93491.56;636365;221;31786;-71
2020/12/06 06:54:29;;;;;;;72.57;31.10;;;0.60;1.40;;;1.15;100.00;93488.88;666364;211;24462;-72
2020/12/06 06:56:58;;;;;;;65.90;32.53;;;0.70;1.40;;;1.20;100.00;93498.60;669833;211;24404;-71
2020/12/06 06:59:39;;;;;;;72.07;30.70;;;0.70;1.40;;;1.19;100.00;93505.14;670808;211;24432;-72
2020/12/06 07:02:08;;;;;;;70.87;27.77;;;0.70;1.40;;;1.11;100.00;93513.95;669958;211;24432;-72
2020/12/06 07:07:12;;;;;;;89.45;38.88;;;0.70;1.40;;;1.06;100.00;93498.93;648158;216;31668;-71
2020/12/06 07:09:41;;;;;;;80.40;30.30;;;0.70;1.40;;;1.06;100.00;93505.50;641951;220;24574;-71
2020/12/06 07:12:10;;;;;;;65.90;28.27;;;0.70;1.40;;;1.04;100.00;93499.18;656751;216;24507;-73
2020/12/06 07:14:40;;;;;;;64.17;27.80;;;0.70;1.40;;;1.11;100.00;93490.89;671083;211;24454;-72
2020/12/06 07:17:09;;;;;;;57.63;26.17;;;0.70;1.40;;;1.19;100.00;93479.37;670924;211;24431;-72
2020/12/06 07:19:38;;;;;;;61.60;27.30;;;0.80;1.40;;;1.14;100.00;93489.06;670540;211;24485;-72
2020/12/06 07:22:08;;;;;;;69.00;26.63;;;0.80;1.40;;;1.17;100.00;93500.96;671145;211;24471;-73
2020/12/06 07:24:38;;;;;;;57.10;25.83;;;0.80;1.40;;;1.25;100.00;93512.45;670815;211;24394;-71
2020/12/06 07:27:08;;;;;;;50.10;26.30;;;0.90;1.40;;;1.23;100.00;93507.05;670514;211;24429;-71
2020/12/06 07:29:37;;;;;;;53.03;23.57;;;0.90;1.40;;;1.26;100.00;93504.00;655944;216;24507;-71
2020/12/06 07:32:06;;;;;;;52.90;26.33;;;0.90;1.40;;;1.32;100.00;93513.16;657150;216;29743;-72
2020/12/06 07:34:35;;;;;;;48.83;24.43;;;1.00;1.40;;;1.36;100.00;93525.58;671753;211;24397;-72
2020/12/06 07:37:04;;;;;;;43.97;21.80;;;1.00;1.40;;;1.30;100.00;93542.44;669005;211;24436;-71
2020/12/06 07:39:33;;;;;;;40.67;19.10;;;1.00;1.40;;;1.31;100.00;93552.99;668765;211;24462;-71
2020/12/06 07:42:02;;;;;;;40.57;21.50;;;1.10;1.40;;;1.35;100.00;93544.01;669223;211;24470;-71
2020/12/06 07:44:31;;;;;;;41.10;20.30;;;1.10;1.40;;;1.38;100.00;93553.19;645540;216;24530;-71
2020/12/06 07:47:00;;;;;;;36.03;20.93;;;1.10;1.40;;;1.46;100.00;93567.73;653668;216;24578;-71
2020/12/06 07:49:29;;;;;;;35.67;19.00;;;1.10;1.40;;;1.52;100.00;93571.50;653794;216;24605;-72
2020/12/06 07:51:58;;;;;;;38.30;22.47;;;1.10;1.40;;;1.56;100.00;93573.46;651086;216;24461;-71
2020/12/06 07:54:28;;;;;;;48.50;21.63;;;1.20;1.40;;;1.64;100.00;93573.95;653997;216;24524;-72
2020/12/06 07:56:57;;;;;;;36.47;19.90;;;1.20;1.40;;;1.64;100.00;93582.38;653927;216;24450;-71
2020/12/06 07:59:26;;;;;;;36.30;17.67;;;1.30;1.40;;;1.65;100.00;93591.66;652468;216;25519;-71
2020/12/06 08:01:55;;;;;;;34.90;18.27;;;1.30;1.40;;;1.66;100.00;93609.20;641321;221;24498;-72
2020/12/06 08:04:25;;;;;;;30.40;19.37;;;1.30;1.40;;;1.72;100.00;93614.31;640140;221;24521;-72
2020/12/06 08:06:54;;;;;;;32.50;18.17;;;1.40;1.40;;;1.70;100.00;93609.06;643466;221;24560;-71
2020/12/06 08:09:23;;;;;;;33.37;19.40;;;1.40;1.40;;;1.72;100.00;93599.63;655274;216;24529;-71
2020/12/06 08:11:52;;;;;;;36.58;20.40;;;1.40;1.40;;;1.76;100.00;93585.93;651486;215;32745;-72
2020/12/06 08:14:21;;;;;;;31.17;20.23;;;1.40;1.40;;;1.76;100.00;93586.20;653611;215;23558;-71
2020/12/06 08:16:59;;;;;;;33.07;18.23;;;1.40;1.40;;;1.86;100.00;93589.06;656255;215;24545;-71
2020/12/06 08:19:28;;;;;;;27.70;14.80;;;1.40;1.40;;;1.92;100.00;93582.83;635750;223;27827;-71
2020/12/06 08:22:00;;;;;;;29.93;17.03;;;1.40;1.40;;;1.93;100.00;93578.11;631544;224;26887;-71
2020/12/06 08:24:30;;;;;;;27.50;15.13;;;1.50;1.40;;;1.93;100.00;93585.95;656596;215;24487;-72
2020/12/06 08:29:41;;;;;;;25.77;17.65;;;1.60;1.40;;;2.11;100.00;93594.77;646399;216;42239;-71
2020/12/06 08:32:10;;;;;;;24.10;16.50;;;1.60;1.40;;;2.15;100.00;93606.92;641662;220;23464;-72
2020/12/06 08:34:39;;;;;;;21.57;14.63;;;1.70;1.40;;;2.18;100.00;93607.98;653941;216;30867;-71
2020/12/06 08:37:15;;;;;;;22.93;15.33;;;1.70;1.40;;;2.26;100.00;93607.17;670557;211;28759;-72
2020/12/06 08:39:44;;;;;;;23.70;14.30;;;1.80;1.40;;;2.33;100.00;93611.69;670119;211;24514;-71
2020/12/06 08:42:16;;;;;;;21.00;15.07;;;1.80;1.40;;;2.31;100.00;93613.16;667436;211;24443;-71
2020/12/06 08:44:52;;;;;;;27.57;18.40;;;1.80;1.40;;;2.38;100.00;93620.84;651993;214;31788;-71
2020/12/06 08:47:20;;;;;;;24.80;19.25;;;1.80;1.40;;;2.44;100.00;93633.09;627917;225;32005;-72
2020/12/06 08:49:49;;;;;;;26.27;15.87;;;1.90;1.40;;;2.55;100.00;93633.88;654236;215;23434;-71
2020/12/06 08:52:21;;;;;;;25.40;14.50;;;2.00;1.40;;;2.60;100.00;93626.95;652794;215;24446;-72
2020/12/06 08:54:50;;;;;;;22.30;14.40;;;2.00;1.40;;;2.61;100.00;93623.99;657026;215;27641;-71
2020/12/06 08:57:19;;;;;;;25.80;16.10;;;2.00;1.40;;;2.50;100.00;93627.13;637327;224;24528;-71
2020/12/06 08:59:47;;;;;;;24.20;16.30;;;2.00;1.40;;;2.57;100.00;93631.48;630924;224;25648;-72
2020/12/06 09:02:21;;;;;;;23.77;15.87;;;2.00;1.40;;;2.65;100.00;93630.02;629750;225;28783;-71
2020/12/06 09:04:50;;;;;;;25.00;16.90;;;2.10;1.40;;;2.82;100.00;93622.71;655833;215;24832;-71
2020/12/06 09:07:19;;;;;;;27.40;14.70;;;2.20;1.40;;;3.00;100.00;93615.97;640820;221;28813;-72
2020/12/06 09:09:48;;;;;;;21.33;13.80;;;2.20;1.40;;;3.03;100.00;93614.78;628504;224;24656;-73
2020/12/06 09:12:17;;;;;;;22.27;15.27;;;2.30;1.40;;;2.86;100.00;93595.11;630227;225;24675;-72
2020/12/06 09:14:46;;;;;;;21.20;14.17;;;2.30;1.40;;;2.95;100.00;93595.12;657404;216;25037;-72
2020/12/06 09:17:15;;;;;;;24.50;18.15;;;2.40;1.40;;;3.07;100.00;93589.45;636962;221;31803;-72
2020/12/06 09:19:44;;;;;;;19.07;13.63;;;2.50;1.40;;;3.17;100.00;93584.59;655432;216;23418;-72
2020/12/06 09:22:13;;;;;;;20.53;13.97;;;2.50;1.40;;;3.22;100.00;93581.06;642058;221;26989;-72
2020/12/06 09:27:17;;;;;;;20.50;14.60;;;2.80;1.40;;;3.27;100.00;93578.09;619369;222;42618;-73
2020/12/06 09:29:46;;;;;;;20.37;15.30;;;2.70;1.40;;;3.40;100.00;93578.92;614078;230;23559;-72
2020/12/06 09:32:15;;;;;;;21.67;13.10;;;2.70;1.40;;;3.54;100.00;93575.02;615768;230;25716;-72
2020/12/06 09:34:44;;;;;;;16.00;11.87;;;2.80;1.40;;;3.41;100.00;93576.44;615687;229;24902;-72
2020/12/06 09:37:13;;;;;;;15.87;11.13;;;2.70;1.40;;;3.34;100.00;93579.89;614936;230;30232;-72
2020/12/06 09:39:42;;;;;;;12.10;9.60;;;2.70;1.40;;;3.39;100.00;93580.72;616935;230;24771;-72
2020/12/06 09:42:11;;;;;;;14.60;11.17;;;2.80;1.40;;;3.50;100.00;93582.00;613980;230;24576;-72
2020/12/06 09:47:15;;;;;;;18.67;14.20;;;2.90;1.40;;;3.89;100.00;93591.00;646599;216;31638;-72
2020/12/06 09:49:44;;;;;;;14.90;10.57;;;3.10;1.40;;;4.00;100.00;93589.13;641703;221;23460;-71
2020/12/06 09:52:13;;;;;;;12.33;9.50;;;3.20;1.40;;;4.33;100.00;93591.17;642107;221;24529;-72
2020/12/06 09:54:42;;;;;;;13.40;10.53;;;3.50;1.40;;;4.44;100.00;93603.59;655331;216;29757;-73
2020/12/06 09:57:11;;;;;;;16.07;9.50;;;3.60;1.40;;;4.31;100.00;93594.39;666230;211;29942;-72
2020/12/06 09:59:40;;;;;;;16.93;10.60;;;3.60;1.40;;;4.45;100.00;93575.13;670185;211;24400;-72
2020/12/06 10:02:09;;;;;;;17.12;12.23;;;3.80;1.40;;;4.88;100.00;93557.16;648912;216;32488;-72
2020/12/06 10:04:38;;;;;;;16.08;11.85;;;4.00;1.40;;;4.82;100.00;93571.50;648570;215;31664;-71
2020/12/06 10:07:07;;;;;;;13.27;9.63;;;4.00;1.40;;;5.10;100.00;93572.12;668135;211;23392;-72
2020/12/06 10:12:17;;;;;;;13.75;11.18;;;4.50;1.40;;;5.38;100.00;93572.70;646763;216;32173;-72
2020/12/06 10:14:46;;;;;;;12.53;9.30;;;4.50;1.40;;;5.24;100.00;93581.00;641189;221;23565;-71
2020/12/06 10:19:50;;;;;;;15.40;12.23;;;4.20;1.40;;;5.11;99.26;93565.38;645110;216;31922;-74
2020/12/06 10:22:19;;;;;;;17.23;13.02;;;4.10;1.40;;;5.26;100.00;93552.31;634516;221;32025;-74
2020/12/06 10:24:48;;;;;;;14.87;10.80;;;4.40;1.40;;;5.50;98.40;93544.30;639170;221;23474;-71
2020/12/06 10:27:17;;;;;;;13.77;10.10;;;4.50;1.40;;;5.16;97.91;93551.42;640835;221;24534;-72
2020/12/06 10:29:46;;;;;;;16.53;10.57;;;4.30;1.40;;;5.56;99.17;93549.30;641671;221;24518;-71
2020/12/06 10:32:15;;;;;;;17.48;13.85;;;4.60;1.40;;;5.62;99.04;93553.97;634928;221;42472;-71
2020/12/06 10:34:44;;;;;;;17.47;11.57;;;4.50;1.40;;;5.61;99.13;93556.48;641527;220;23529;-70
2020/12/06 10:37:13;;;;;;;15.90;11.13;;;4.50;1.40;;;5.31;98.99;93549.88;640129;221;24542;-71
2020/12/06 10:39:42;;;;;;;16.57;10.60;;;4.30;1.40;;;5.16;99.54;93551.47;655611;216;26648;-73
2020/12/06 10:42:11;;;;;;;15.70;10.77;;;4.20;1.40;;;4.93;100.00;93562.47;668539;211;24942;-71
2020/12/06 10:47:15;;;;;;;16.42;10.95;;;4.00;1.40;;;4.60;100.00;93565.14;650124;213;31617;-71
2020/12/06 10:49:45;;;;;;;17.73;10.80;;;3.90;1.40;;;4.34;100.00;93570.97;640995;221;23514;-71
2020/12/06 10:52:13;;;;;;;13.77;10.20;;;3.70;99.90;;;4.26;100.00;93570.30;640721;221;27899;-70
2020/12/06 10:54:42;;;;;;;21.67;10.80;;;3.70;99.90;;;4.19;100.00;93565.21;641740;221;24504;-70
2020/12/06 10:57:11;;;;;;;18.87;12.07;;;3.60;99.90;;;4.27;100.00;93570.40;635106;221;32410;-70
2020/12/06 10:59:40;;;;;;;16.53;11.20;;;3.70;1.40;;;4.21;100.00;93561.02;654970;216;23495;-70
2020/12/06 11:02:10;;;;;;;17.60;10.03;;;3.80;1.40;;;4.47;100.00;93554.48;654709;216;24511;-70
2020/12/06 11:04:39;;;;;;;20.77;12.18;;;3.90;1.40;;;4.53;100.00;93559.94;664003;211;31460;-71
2020/12/06 11:07:08;;;;;;;22.47;13.33;;;3.90;1.40;;;4.50;100.00;93560.63;672175;211;23410;-70
2020/12/06 11:09:37;;;;;;;13.57;9.00;;;4.00;1.40;;;4.50;100.00;93556.64;673092;211;24458;-70